sensor_id;sensor_type;location;lat;lon;timestamp;P1;durP1;ratioP1;P2;durP2;ratioP2
14874;SDS011;7529;48.170;17.138;2022-07-15T00:02:51;2.80;;;2.70;;
14874;SDS011;7529;48.170;17.138;2022-07-15T00:07:03;2.85;;;2.75;;
14874;SDS011;7529;48.170;17.138;2022-07-15T00:11:15;3.25;;;3.15;;
14874;SDS011;7529;48.170;17.138;2022-07-15T00:15:28;2.85;;;2.75;;
14874;SDS011;7529;48.170;17.138;2022-07-15T00:19:42;3.92;;;2.92;;
14874;SDS011;7529;48.170;17.138;2022-07-15T00:23:53;2.47;;;2.38;;
14874;SDS011;7529;48.170;17.138;2022-07-15T00:28:05;2.97;;;2.88;;
14874;SDS011;7529;48.170;17.138;2022-07-15T00:32:19;2.67;;;2.58;;
14874;SDS011;7529;48.170;17.138;2022-07-15T00:36:30;3.00;;;2.80;;
14874;SDS011;7529;48.170;17.138;2022-07-15T00:40:43;2.42;;;2.33;;
14874;SDS011;7529;48.170;17.138;2022-07-15T00:44:57;2.17;;;2.08;;
14874;SDS011;7529;48.170;17.138;2022-07-15T00:49:09;2.83;;;2.72;;
14874;SDS011;7529;48.170;17.138;2022-07-15T00:53:21;2.67;;;2.58;;
14874;SDS011;7529;48.170;17.138;2022-07-15T00:57:33;3.15;;;3.05;;
14874;SDS011;7529;48.170;17.138;2022-07-15T01:01:52;2.85;;;2.75;;
14874;SDS011;7529;48.170;17.138;2022-07-15T01:06:04;2.88;;;2.78;;
14874;SDS011;7529;48.170;17.138;2022-07-15T01:10:17;3.15;;;3.05;;
14874;SDS011;7529;48.170;17.138;2022-07-15T01:14:30;2.95;;;2.85;;
14874;SDS011;7529;48.170;17.138;2022-07-15T01:18:42;2.58;;;2.47;;
14874;SDS011;7529;48.170;17.138;2022-07-15T01:22:54;2.83;;;2.72;;
14874;SDS011;7529;48.170;17.138;2022-07-15T01:27:09;11.50;;;10.80;;
14874;SDS011;7529;48.170;17.138;2022-07-15T01:31:21;5.65;;;5.45;;
14874;SDS011;7529;48.170;17.138;2022-07-15T01:35:33;38.03;;;36.33;;
14874;SDS011;7529;48.170;17.138;2022-07-15T01:39:45;100.53;;;95.75;;
14874;SDS011;7529;48.170;17.138;2022-07-15T01:43:57;68.80;;;65.63;;
14874;SDS011;7529;48.170;17.138;2022-07-15T01:48:09;135.75;;;127.93;;
14874;SDS011;7529;48.170;17.138;2022-07-15T01:52:56;110.53;;;104.28;;
14874;SDS011;7529;48.170;17.138;2022-07-15T01:57:11;151.82;;;142.32;;
14874;SDS011;7529;48.170;17.138;2022-07-15T02:01:37;79.65;;;75.25;;
14874;SDS011;7529;48.170;17.138;2022-07-15T02:05:55;89.85;;;85.25;;
14874;SDS011;7529;48.170;17.138;2022-07-15T02:10:10;210.38;;;197.20;;
14874;SDS011;7529;48.170;17.138;2022-07-15T02:14:27;185.85;;;172.95;;
14874;SDS011;7529;48.170;17.138;2022-07-15T02:18:46;136.90;;;129.07;;
14874;SDS011;7529;48.170;17.138;2022-07-15T02:22:57;116.57;;;109.35;;
14874;SDS011;7529;48.170;17.138;2022-07-15T02:27:10;57.80;;;54.40;;
14874;SDS011;7529;48.170;17.138;2022-07-15T02:31:21;16.30;;;15.43;;
14874;SDS011;7529;48.170;17.138;2022-07-15T02:35:33;43.88;;;41.40;;
14874;SDS011;7529;48.170;17.138;2022-07-15T02:39:45;43.10;;;40.67;;
14874;SDS011;7529;48.170;17.138;2022-07-15T02:43:57;19.25;;;18.27;;
14874;SDS011;7529;48.170;17.138;2022-07-15T02:48:11;35.72;;;33.90;;
14874;SDS011;7529;48.170;17.138;2022-07-15T02:52:28;126.00;;;118.40;;
14874;SDS011;7529;48.170;17.138;2022-07-15T02:56:40;12.07;;;11.52;;
14874;SDS011;7529;48.170;17.138;2022-07-15T03:00:52;89.63;;;84.53;;
14874;SDS011;7529;48.170;17.138;2022-07-15T03:05:04;72.30;;;68.38;;
14874;SDS011;7529;48.170;17.138;2022-07-15T03:09:19;40.67;;;38.60;;
14874;SDS011;7529;48.170;17.138;2022-07-15T03:13:31;24.17;;;23.15;;
14874;SDS011;7529;48.170;17.138;2022-07-15T03:17:42;35.20;;;33.60;;
14874;SDS011;7529;48.170;17.138;2022-07-15T03:21:54;15.20;;;14.50;;
14874;SDS011;7529;48.170;17.138;2022-07-15T03:26:08;25.60;;;24.45;;
14874;SDS011;7529;48.170;17.138;2022-07-15T03:30:23;26.65;;;25.40;;
14874;SDS011;7529;48.170;17.138;2022-07-15T03:34:34;36.05;;;34.30;;
14874;SDS011;7529;48.170;17.138;2022-07-15T03:38:47;34.65;;;33.05;;
14874;SDS011;7529;48.170;17.138;2022-07-15T03:43:00;27.55;;;26.25;;
14874;SDS011;7529;48.170;17.138;2022-07-15T03:47:15;47.08;;;44.90;;
14874;SDS011;7529;48.170;17.138;2022-07-15T03:51:26;34.03;;;32.53;;
14874;SDS011;7529;48.170;17.138;2022-07-15T03:55:41;28.83;;;27.52;;
14874;SDS011;7529;48.170;17.138;2022-07-15T03:59:53;33.33;;;31.88;;
14874;SDS011;7529;48.170;17.138;2022-07-15T04:04:04;32.33;;;30.92;;
14874;SDS011;7529;48.170;17.138;2022-07-15T04:08:16;31.63;;;30.20;;
14874;SDS011;7529;48.170;17.138;2022-07-15T04:12:28;33.08;;;31.65;;
14874;SDS011;7529;48.170;17.138;2022-07-15T04:16:40;37.90;;;36.13;;
14874;SDS011;7529;48.170;17.138;2022-07-15T04:21:05;32.58;;;30.95;;
14874;SDS011;7529;48.170;17.138;2022-07-15T04:25:18;13.48;;;12.77;;
14874;SDS011;7529;48.170;17.138;2022-07-15T04:29:37;12.23;;;11.70;;
14874;SDS011;7529;48.170;17.138;2022-07-15T04:33:51;11.57;;;10.98;;
14874;SDS011;7529;48.170;17.138;2022-07-15T04:38:02;8.32;;;7.93;;
14874;SDS011;7529;48.170;17.138;2022-07-15T04:42:16;9.52;;;9.02;;
14874;SDS011;7529;48.170;17.138;2022-07-15T04:46:28;9.18;;;8.63;;
14874;SDS011;7529;48.170;17.138;2022-07-15T04:50:51;7.45;;;7.05;;
14874;SDS011;7529;48.170;17.138;2022-07-15T04:55:07;9.40;;;8.75;;
14874;SDS011;7529;48.170;17.138;2022-07-15T04:59:20;8.23;;;7.72;;
14874;SDS011;7529;48.170;17.138;2022-07-15T05:03:34;6.85;;;6.45;;
14874;SDS011;7529;48.170;17.138;2022-07-15T05:07:47;7.22;;;6.82;;
14874;SDS011;7529;48.170;17.138;2022-07-15T05:11:59;6.57;;;5.75;;
14874;SDS011;7529;48.170;17.138;2022-07-15T05:16:11;7.68;;;7.03;;
14874;SDS011;7529;48.170;17.138;2022-07-15T05:20:23;6.35;;;6.05;;
14874;SDS011;7529;48.170;17.138;2022-07-15T05:24:36;7.07;;;6.68;;
14874;SDS011;7529;48.170;17.138;2022-07-15T05:28:48;6.65;;;6.35;;
14874;SDS011;7529;48.170;17.138;2022-07-15T05:33:01;6.78;;;6.43;;
14874;SDS011;7529;48.170;17.138;2022-07-15T05:37:13;7.45;;;7.05;;
14874;SDS011;7529;48.170;17.138;2022-07-15T05:41:25;7.30;;;6.75;;
14874;SDS011;7529;48.170;17.138;2022-07-15T05:45:36;7.25;;;6.85;;
14874;SDS011;7529;48.170;17.138;2022-07-15T05:49:51;8.05;;;7.55;;
14874;SDS011;7529;48.170;17.138;2022-07-15T05:54:03;7.18;;;6.68;;
14874;SDS011;7529;48.170;17.138;2022-07-15T05:58:17;6.63;;;6.22;;
14874;SDS011;7529;48.170;17.138;2022-07-15T06:02:28;6.85;;;6.45;;
14874;SDS011;7529;48.170;17.138;2022-07-15T06:06:42;6.85;;;6.45;;
14874;SDS011;7529;48.170;17.138;2022-07-15T06:10:53;7.15;;;6.75;;
14874;SDS011;7529;48.170;17.138;2022-07-15T06:15:07;6.47;;;6.07;;
14874;SDS011;7529;48.170;17.138;2022-07-15T06:19:19;8.60;;;7.53;;
14874;SDS011;7529;48.170;17.138;2022-07-15T06:23:31;6.20;;;5.90;;
14874;SDS011;7529;48.170;17.138;2022-07-15T06:27:42;6.65;;;6.22;;
14874;SDS011;7529;48.170;17.138;2022-07-15T06:31:54;6.50;;;6.00;;
14874;SDS011;7529;48.170;17.138;2022-07-15T06:36:09;7.70;;;7.10;;
14874;SDS011;7529;48.170;17.138;2022-07-15T06:40:21;7.45;;;7.00;;
14874;SDS011;7529;48.170;17.138;2022-07-15T06:44:32;6.32;;;5.82;;
14874;SDS011;7529;48.170;17.138;2022-07-15T06:48:52;7.18;;;6.68;;
14874;SDS011;7529;48.170;17.138;2022-07-15T06:53:04;6.70;;;6.20;;
14874;SDS011;7529;48.170;17.138;2022-07-15T06:57:16;7.10;;;6.60;;
14874;SDS011;7529;48.170;17.138;2022-07-15T07:01:27;6.97;;;6.40;;
14874;SDS011;7529;48.170;17.138;2022-07-15T07:05:39;6.32;;;6.03;;
14874;SDS011;7529;48.170;17.138;2022-07-15T07:09:50;7.50;;;7.00;;
14874;SDS011;7529;48.170;17.138;2022-07-15T07:14:02;6.57;;;6.15;;
14874;SDS011;7529;48.170;17.138;2022-07-15T07:18:14;6.43;;;6.03;;
14874;SDS011;7529;48.170;17.138;2022-07-15T07:22:25;5.20;;;4.88;;
14874;SDS011;7529;48.170;17.138;2022-07-15T07:26:37;5.50;;;5.20;;
14874;SDS011;7529;48.170;17.138;2022-07-15T07:30:48;6.40;;;5.90;;
14874;SDS011;7529;48.170;17.138;2022-07-15T07:35:02;5.05;;;4.75;;
14874;SDS011;7529;48.170;17.138;2022-07-15T07:39:15;5.53;;;5.22;;
14874;SDS011;7529;48.170;17.138;2022-07-15T07:43:27;5.00;;;4.80;;
14874;SDS011;7529;48.170;17.138;2022-07-15T07:47:39;5.68;;;5.38;;
14874;SDS011;7529;48.170;17.138;2022-07-15T07:51:51;5.38;;;5.07;;
14874;SDS011;7529;48.170;17.138;2022-07-15T07:56:03;6.22;;;5.82;;
14874;SDS011;7529;48.170;17.138;2022-07-15T08:00:15;5.82;;;5.53;;
14874;SDS011;7529;48.170;17.138;2022-07-15T08:04:28;5.63;;;5.13;;
14874;SDS011;7529;48.170;17.138;2022-07-15T08:08:40;5.38;;;4.97;;
14874;SDS011;7529;48.170;17.138;2022-07-15T08:12:51;4.28;;;4.00;;
14874;SDS011;7529;48.170;17.138;2022-07-15T08:17:04;5.35;;;5.05;;
14874;SDS011;7529;48.170;17.138;2022-07-15T08:21:16;5.10;;;4.80;;
14874;SDS011;7529;48.170;17.138;2022-07-15T08:25:28;3.60;;;3.40;;
14874;SDS011;7529;48.170;17.138;2022-07-15T08:29:42;4.68;;;4.35;;
14874;SDS011;7529;48.170;17.138;2022-07-15T08:33:53;3.97;;;3.78;;
14874;SDS011;7529;48.170;17.138;2022-07-15T08:38:05;3.95;;;3.75;;
14874;SDS011;7529;48.170;17.138;2022-07-15T08:42:18;3.75;;;3.53;;
14874;SDS011;7529;48.170;17.138;2022-07-15T08:46:30;3.00;;;2.88;;
14874;SDS011;7529;48.170;17.138;2022-07-15T08:50:44;3.22;;;3.03;;
14874;SDS011;7529;48.170;17.138;2022-07-15T08:54:56;3.33;;;3.17;;
14874;SDS011;7529;48.170;17.138;2022-07-15T08:59:08;3.58;;;3.38;;
14874;SDS011;7529;48.170;17.138;2022-07-15T09:03:20;4.03;;;3.83;;
14874;SDS011;7529;48.170;17.138;2022-07-15T09:07:35;2.72;;;2.63;;
14874;SDS011;7529;48.170;17.138;2022-07-15T09:12:23;2.75;;;2.55;;
14874;SDS011;7529;48.170;17.138;2022-07-15T09:16:34;2.47;;;2.38;;
14874;SDS011;7529;48.170;17.138;2022-07-15T09:20:46;2.53;;;2.42;;
14874;SDS011;7529;48.170;17.138;2022-07-15T09:25:09;2.50;;;2.40;;
14874;SDS011;7529;48.170;17.138;2022-07-15T09:29:34;2.80;;;2.60;;
14874;SDS011;7529;48.170;17.138;2022-07-15T09:34:05;3.10;;;3.00;;
14874;SDS011;7529;48.170;17.138;2022-07-15T09:38:16;4.25;;;3.85;;
14874;SDS011;7529;48.170;17.138;2022-07-15T09:42:34;3.90;;;3.75;;
14874;SDS011;7529;48.170;17.138;2022-07-15T09:46:53;3.90;;;3.70;;
14874;SDS011;7529;48.170;17.138;2022-07-15T09:51:05;3.08;;;2.97;;
14874;SDS011;7529;48.170;17.138;2022-07-15T09:55:17;5.00;;;4.80;;
14874;SDS011;7529;48.170;17.138;2022-07-15T09:59:30;4.00;;;3.80;;
14874;SDS011;7529;48.170;17.138;2022-07-15T10:03:43;6.30;;;6.00;;
14874;SDS011;7529;48.170;17.138;2022-07-15T10:07:56;6.82;;;6.53;;
14874;SDS011;7529;48.170;17.138;2022-07-15T10:12:14;7.35;;;7.05;;
14874;SDS011;7529;48.170;17.138;2022-07-15T10:30:09;12.10;;;11.60;;
14874;SDS011;7529;48.170;17.138;2022-07-15T10:34:22;10.38;;;9.85;;
14874;SDS011;7529;48.170;17.138;2022-07-15T10:38:35;7.57;;;7.28;;
14874;SDS011;7529;48.170;17.138;2022-07-15T10:42:58;6.60;;;6.40;;
14874;SDS011;7529;48.170;17.138;2022-07-15T10:55:47;4.32;;;4.13;;
14874;SDS011;7529;48.170;17.138;2022-07-15T10:59:59;4.28;;;4.05;;
14874;SDS011;7529;48.170;17.138;2022-07-15T11:17:01;2.70;;;2.50;;
14874;SDS011;7529;48.170;17.138;2022-07-15T11:21:13;2.40;;;2.30;;
14874;SDS011;7529;48.170;17.138;2022-07-15T11:25:26;2.75;;;2.55;;
14874;SDS011;7529;48.170;17.138;2022-07-15T11:29:49;3.00;;;2.90;;
14874;SDS011;7529;48.170;17.138;2022-07-15T11:34:03;3.35;;;3.25;;
14874;SDS011;7529;48.170;17.138;2022-07-15T11:38:17;2.92;;;2.83;;
14874;SDS011;7529;48.170;17.138;2022-07-15T11:42:34;2.90;;;2.80;;
14874;SDS011;7529;48.170;17.138;2022-07-15T11:47:04;2.60;;;2.50;;
14874;SDS011;7529;48.170;17.138;2022-07-15T11:51:16;3.53;;;3.33;;
14874;SDS011;7529;48.170;17.138;2022-07-15T11:55:57;3.20;;;3.10;;
14874;SDS011;7529;48.170;17.138;2022-07-15T12:00:10;3.63;;;3.42;;
14874;SDS011;7529;48.170;17.138;2022-07-15T12:04:26;2.78;;;2.67;;
14874;SDS011;7529;48.170;17.138;2022-07-15T12:13:04;2.60;;;2.50;;
14874;SDS011;7529;48.170;17.138;2022-07-15T12:17:16;3.00;;;2.70;;
14874;SDS011;7529;48.170;17.138;2022-07-15T12:21:31;2.20;;;2.10;;
14874;SDS011;7529;48.170;17.138;2022-07-15T12:25:44;2.40;;;2.30;;
14874;SDS011;7529;48.170;17.138;2022-07-15T12:30:03;2.80;;;2.60;;
14874;SDS011;7529;48.170;17.138;2022-07-15T12:34:17;2.70;;;2.60;;
14874;SDS011;7529;48.170;17.138;2022-07-15T12:38:30;3.00;;;2.90;;
14874;SDS011;7529;48.170;17.138;2022-07-15T12:42:43;3.05;;;2.90;;
14874;SDS011;7529;48.170;17.138;2022-07-15T12:47:04;3.05;;;2.90;;
14874;SDS011;7529;48.170;17.138;2022-07-15T12:51:17;2.30;;;2.20;;
14874;SDS011;7529;48.170;17.138;2022-07-15T12:55:41;2.60;;;2.50;;
14874;SDS011;7529;48.170;17.138;2022-07-15T13:00:00;2.90;;;2.80;;
14874;SDS011;7529;48.170;17.138;2022-07-15T13:04:34;2.45;;;2.35;;
14874;SDS011;7529;48.170;17.138;2022-07-15T13:08:45;16.80;;;2.60;;
14874;SDS011;7529;48.170;17.138;2022-07-15T13:12:57;2.55;;;2.45;;
14874;SDS011;7529;48.170;17.138;2022-07-15T13:17:09;2.50;;;2.40;;
14874;SDS011;7529;48.170;17.138;2022-07-15T13:21:21;2.85;;;2.75;;
14874;SDS011;7529;48.170;17.138;2022-07-15T13:25:33;2.38;;;2.28;;
14874;SDS011;7529;48.170;17.138;2022-07-15T13:29:48;2.50;;;2.40;;
14874;SDS011;7529;48.170;17.138;2022-07-15T13:33:59;2.53;;;2.42;;
14874;SDS011;7529;48.170;17.138;2022-07-15T13:38:11;4.18;;;2.85;;
14874;SDS011;7529;48.170;17.138;2022-07-15T13:42:23;3.50;;;3.30;;
14874;SDS011;7529;48.170;17.138;2022-07-15T13:46:39;3.42;;;3.25;;
14874;SDS011;7529;48.170;17.138;2022-07-15T13:50:51;3.63;;;3.42;;
14874;SDS011;7529;48.170;17.138;2022-07-15T13:55:22;3.65;;;3.45;;
14874;SDS011;7529;48.170;17.138;2022-07-15T13:59:34;3.47;;;3.22;;
14874;SDS011;7529;48.170;17.138;2022-07-15T14:03:46;2.70;;;2.60;;
14874;SDS011;7529;48.170;17.138;2022-07-15T14:07:57;2.60;;;2.50;;
14874;SDS011;7529;48.170;17.138;2022-07-15T14:12:09;3.22;;;3.13;;
14874;SDS011;7529;48.170;17.138;2022-07-15T14:16:20;3.20;;;3.00;;
14874;SDS011;7529;48.170;17.138;2022-07-15T14:20:32;2.88;;;2.78;;
14874;SDS011;7529;48.170;17.138;2022-07-15T14:24:45;2.70;;;2.60;;
14874;SDS011;7529;48.170;17.138;2022-07-15T14:28:57;2.70;;;2.30;;
14874;SDS011;7529;48.170;17.138;2022-07-15T14:33:08;2.30;;;2.20;;
14874;SDS011;7529;48.170;17.138;2022-07-15T14:37:20;2.70;;;2.60;;
14874;SDS011;7529;48.170;17.138;2022-07-15T14:41:31;2.70;;;2.60;;
14874;SDS011;7529;48.170;17.138;2022-07-15T14:45:44;2.50;;;2.40;;
14874;SDS011;7529;48.170;17.138;2022-07-15T14:49:55;2.38;;;2.20;;
14874;SDS011;7529;48.170;17.138;2022-07-15T14:54:07;2.80;;;2.60;;
14874;SDS011;7529;48.170;17.138;2022-07-15T14:58:20;2.80;;;2.60;;
14874;SDS011;7529;48.170;17.138;2022-07-15T15:02:32;2.90;;;2.80;;
14874;SDS011;7529;48.170;17.138;2022-07-15T15:06:44;2.67;;;2.58;;
14874;SDS011;7529;48.170;17.138;2022-07-15T15:10:56;2.83;;;2.72;;
14874;SDS011;7529;48.170;17.138;2022-07-15T15:15:08;2.30;;;2.20;;
14874;SDS011;7529;48.170;17.138;2022-07-15T15:19:20;2.45;;;2.35;;
14874;SDS011;7529;48.170;17.138;2022-07-15T15:23:31;3.10;;;2.78;;
14874;SDS011;7529;48.170;17.138;2022-07-15T15:27:45;3.55;;;3.35;;
14874;SDS011;7529;48.170;17.138;2022-07-15T15:31:57;2.30;;;2.20;;
14874;SDS011;7529;48.170;17.138;2022-07-15T15:36:09;2.40;;;2.30;;
14874;SDS011;7529;48.170;17.138;2022-07-15T15:40:20;2.40;;;2.30;;
14874;SDS011;7529;48.170;17.138;2022-07-15T15:44:32;2.63;;;2.53;;
14874;SDS011;7529;48.170;17.138;2022-07-15T15:48:45;2.60;;;2.50;;
14874;SDS011;7529;48.170;17.138;2022-07-15T15:52:57;3.42;;;3.20;;
14874;SDS011;7529;48.170;17.138;2022-07-15T15:57:08;2.92;;;2.83;;
14874;SDS011;7529;48.170;17.138;2022-07-15T16:01:20;3.38;;;3.17;;
14874;SDS011;7529;48.170;17.138;2022-07-15T16:05:33;4.07;;;3.88;;
14874;SDS011;7529;48.170;17.138;2022-07-15T16:09:44;3.45;;;3.17;;
14874;SDS011;7529;48.170;17.138;2022-07-15T16:13:56;3.00;;;2.90;;
14874;SDS011;7529;48.170;17.138;2022-07-15T16:18:09;3.83;;;3.53;;
14874;SDS011;7529;48.170;17.138;2022-07-15T16:22:20;4.05;;;3.85;;
14874;SDS011;7529;48.170;17.138;2022-07-15T16:26:51;3.17;;;2.97;;
14874;SDS011;7529;48.170;17.138;2022-07-15T16:31:03;3.50;;;3.30;;
14874;SDS011;7529;48.170;17.138;2022-07-15T16:35:14;3.95;;;3.35;;
14874;SDS011;7529;48.170;17.138;2022-07-15T16:39:26;3.15;;;3.00;;
14874;SDS011;7529;48.170;17.138;2022-07-15T16:43:45;3.47;;;3.20;;
14874;SDS011;7529;48.170;17.138;2022-07-15T16:47:57;5.88;;;4.50;;
14874;SDS011;7529;48.170;17.138;2022-07-15T16:52:09;3.85;;;3.65;;
14874;SDS011;7529;48.170;17.138;2022-07-15T16:56:20;3.70;;;3.50;;
14874;SDS011;7529;48.170;17.138;2022-07-15T17:00:32;3.00;;;2.90;;
14874;SDS011;7529;48.170;17.138;2022-07-15T17:04:44;3.20;;;3.10;;
14874;SDS011;7529;48.170;17.138;2022-07-15T17:08:56;3.08;;;2.88;;
14874;SDS011;7529;48.170;17.138;2022-07-15T17:13:08;3.10;;;3.00;;
14874;SDS011;7529;48.170;17.138;2022-07-15T17:17:21;3.70;;;3.40;;
14874;SDS011;7529;48.170;17.138;2022-07-15T17:21:32;3.20;;;3.10;;
14874;SDS011;7529;48.170;17.138;2022-07-15T17:25:47;3.53;;;3.40;;
14874;SDS011;7529;48.170;17.138;2022-07-15T17:29:58;3.20;;;3.00;;
14874;SDS011;7529;48.170;17.138;2022-07-15T17:34:10;3.10;;;3.00;;
14874;SDS011;7529;48.170;17.138;2022-07-15T17:38:22;3.72;;;3.47;;
14874;SDS011;7529;48.170;17.138;2022-07-15T17:42:34;4.18;;;3.95;;
14874;SDS011;7529;48.170;17.138;2022-07-15T17:46:45;4.40;;;4.10;;
14874;SDS011;7529;48.170;17.138;2022-07-15T17:50:57;4.03;;;3.83;;
14874;SDS011;7529;48.170;17.138;2022-07-15T17:55:10;5.60;;;5.30;;
14874;SDS011;7529;48.170;17.138;2022-07-15T17:59:25;5.32;;;5.13;;
14874;SDS011;7529;48.170;17.138;2022-07-15T18:03:36;4.82;;;4.63;;
14874;SDS011;7529;48.170;17.138;2022-07-15T18:07:48;5.80;;;5.50;;
14874;SDS011;7529;48.170;17.138;2022-07-15T18:11:59;6.47;;;6.03;;
14874;SDS011;7529;48.170;17.138;2022-07-15T18:16:11;7.80;;;7.43;;
14874;SDS011;7529;48.170;17.138;2022-07-15T18:20:23;7.43;;;7.13;;
14874;SDS011;7529;48.170;17.138;2022-07-15T18:24:35;8.25;;;7.95;;
14874;SDS011;7529;48.170;17.138;2022-07-15T18:28:47;21.20;;;20.25;;
14874;SDS011;7529;48.170;17.138;2022-07-15T18:33:00;11.32;;;10.88;;
14874;SDS011;7529;48.170;17.138;2022-07-15T18:37:12;30.70;;;29.33;;
14874;SDS011;7529;48.170;17.138;2022-07-15T18:41:24;16.50;;;15.75;;
14874;SDS011;7529;48.170;17.138;2022-07-15T18:45:36;18.13;;;17.33;;
14874;SDS011;7529;48.170;17.138;2022-07-15T18:49:48;17.63;;;16.88;;
14874;SDS011;7529;48.170;17.138;2022-07-15T18:54:00;19.50;;;18.65;;
14874;SDS011;7529;48.170;17.138;2022-07-15T18:58:12;21.98;;;20.98;;
14874;SDS011;7529;48.170;17.138;2022-07-15T19:02:24;24.23;;;23.17;;
14874;SDS011;7529;48.170;17.138;2022-07-15T19:06:36;20.92;;;19.92;;
14874;SDS011;7529;48.170;17.138;2022-07-15T19:10:47;19.95;;;18.90;;
14874;SDS011;7529;48.170;17.138;2022-07-15T19:14:59;18.30;;;17.38;;
14874;SDS011;7529;48.170;17.138;2022-07-15T19:19:11;21.15;;;20.25;;
14874;SDS011;7529;48.170;17.138;2022-07-15T19:23:24;20.23;;;19.27;;
14874;SDS011;7529;48.170;17.138;2022-07-15T19:27:37;16.67;;;15.90;;
14874;SDS011;7529;48.170;17.138;2022-07-15T19:31:49;14.80;;;14.18;;
14874;SDS011;7529;48.170;17.138;2022-07-15T19:36:01;11.30;;;10.82;;
14874;SDS011;7529;48.170;17.138;2022-07-15T19:40:14;12.95;;;12.25;;
14874;SDS011;7529;48.170;17.138;2022-07-15T19:44:26;7.45;;;7.15;;
14874;SDS011;7529;48.170;17.138;2022-07-15T19:48:38;5.75;;;5.55;;
14874;SDS011;7529;48.170;17.138;2022-07-15T19:52:49;4.93;;;4.72;;
14874;SDS011;7529;48.170;17.138;2022-07-15T19:57:01;5.05;;;4.85;;
14874;SDS011;7529;48.170;17.138;2022-07-15T20:01:13;4.65;;;4.45;;
14874;SDS011;7529;48.170;17.138;2022-07-15T20:05:25;4.25;;;4.05;;
14874;SDS011;7529;48.170;17.138;2022-07-15T20:09:38;4.90;;;4.70;;
14874;SDS011;7529;48.170;17.138;2022-07-15T20:13:50;5.47;;;5.28;;
14874;SDS011;7529;48.170;17.138;2022-07-15T20:18:01;5.25;;;5.05;;
14874;SDS011;7529;48.170;17.138;2022-07-15T20:22:13;4.95;;;4.75;;
14874;SDS011;7529;48.170;17.138;2022-07-15T20:26:25;4.78;;;4.47;;
14874;SDS011;7529;48.170;17.138;2022-07-15T20:30:36;6.28;;;5.97;;
14874;SDS011;7529;48.170;17.138;2022-07-15T20:34:48;5.57;;;5.38;;
14874;SDS011;7529;48.170;17.138;2022-07-15T20:39:00;7.40;;;7.07;;
14874;SDS011;7529;48.170;17.138;2022-07-15T20:43:12;6.00;;;5.70;;
14874;SDS011;7529;48.170;17.138;2022-07-15T20:47:24;5.65;;;5.45;;
14874;SDS011;7529;48.170;17.138;2022-07-15T20:51:35;6.63;;;6.32;;
14874;SDS011;7529;48.170;17.138;2022-07-15T20:55:47;5.70;;;5.47;;
14874;SDS011;7529;48.170;17.138;2022-07-15T20:59:59;6.60;;;6.30;;
14874;SDS011;7529;48.170;17.138;2022-07-15T21:04:11;6.07;;;5.82;;
14874;SDS011;7529;48.170;17.138;2022-07-15T21:08:23;5.00;;;4.80;;
14874;SDS011;7529;48.170;17.138;2022-07-15T21:12:35;6.45;;;6.15;;
14874;SDS011;7529;48.170;17.138;2022-07-15T21:16:47;6.93;;;6.63;;
14874;SDS011;7529;48.170;17.138;2022-07-15T21:20:59;6.35;;;6.05;;
14874;SDS011;7529;48.170;17.138;2022-07-15T21:25:10;5.85;;;5.55;;
14874;SDS011;7529;48.170;17.138;2022-07-15T21:29:41;6.63;;;6.22;;
14874;SDS011;7529;48.170;17.138;2022-07-15T21:33:52;8.13;;;7.72;;
14874;SDS011;7529;48.170;17.138;2022-07-15T21:38:04;8.38;;;8.02;;
14874;SDS011;7529;48.170;17.138;2022-07-15T21:42:16;9.55;;;9.15;;
14874;SDS011;7529;48.170;17.138;2022-07-15T21:46:28;9.35;;;8.95;;
14874;SDS011;7529;48.170;17.138;2022-07-15T21:50:39;11.38;;;10.90;;
14874;SDS011;7529;48.170;17.138;2022-07-15T21:54:51;14.23;;;13.65;;
14874;SDS011;7529;48.170;17.138;2022-07-15T21:59:02;13.82;;;13.27;;
14874;SDS011;7529;48.170;17.138;2022-07-15T22:03:14;20.85;;;19.92;;
14874;SDS011;7529;48.170;17.138;2022-07-15T22:07:26;22.70;;;21.70;;
14874;SDS011;7529;48.170;17.138;2022-07-15T22:11:38;27.27;;;26.08;;
14874;SDS011;7529;48.170;17.138;2022-07-15T22:15:49;24.67;;;23.65;;
14874;SDS011;7529;48.170;17.138;2022-07-15T22:20:01;24.52;;;23.48;;
14874;SDS011;7529;48.170;17.138;2022-07-15T22:24:13;29.15;;;27.85;;
14874;SDS011;7529;48.170;17.138;2022-07-15T22:28:25;30.58;;;29.27;;
14874;SDS011;7529;48.170;17.138;2022-07-15T22:32:38;32.25;;;30.85;;
14874;SDS011;7529;48.170;17.138;2022-07-15T22:36:52;31.95;;;30.60;;
14874;SDS011;7529;48.170;17.138;2022-07-15T22:41:04;36.30;;;34.70;;
14874;SDS011;7529;48.170;17.138;2022-07-15T22:45:16;36.38;;;34.80;;
14874;SDS011;7529;48.170;17.138;2022-07-15T22:49:29;37.13;;;35.53;;
14874;SDS011;7529;48.170;17.138;2022-07-15T22:53:42;44.42;;;42.42;;
14874;SDS011;7529;48.170;17.138;2022-07-15T22:57:53;39.13;;;37.42;;
14874;SDS011;7529;48.170;17.138;2022-07-15T23:02:05;39.83;;;38.03;;
14874;SDS011;7529;48.170;17.138;2022-07-15T23:06:17;39.95;;;38.25;;
14874;SDS011;7529;48.170;17.138;2022-07-15T23:10:28;39.55;;;37.75;;
14874;SDS011;7529;48.170;17.138;2022-07-15T23:14:40;46.88;;;44.85;;
14874;SDS011;7529;48.170;17.138;2022-07-15T23:18:55;41.47;;;39.70;;
14874;SDS011;7529;48.170;17.138;2022-07-15T23:23:07;39.88;;;38.17;;
14874;SDS011;7529;48.170;17.138;2022-07-15T23:27:19;44.08;;;42.17;;
14874;SDS011;7529;48.170;17.138;2022-07-15T23:31:30;37.17;;;35.58;;
14874;SDS011;7529;48.170;17.138;2022-07-15T23:35:42;37.67;;;36.08;;
14874;SDS011;7529;48.170;17.138;2022-07-15T23:39:53;38.35;;;36.70;;
14874;SDS011;7529;48.170;17.138;2022-07-15T23:44:05;50.13;;;47.92;;
14874;SDS011;7529;48.170;17.138;2022-07-15T23:48:17;45.90;;;43.92;;
14874;SDS011;7529;48.170;17.138;2022-07-15T23:52:28;42.42;;;40.53;;
14874;SDS011;7529;48.170;17.138;2022-07-15T23:56:40;49.85;;;47.63;;
